sensor_id;sensor_type;location;lat;lon;timestamp;P1;durP1;ratioP1;P2;durP2;ratioP2
10717;SDS011;13513;42.700;23.124;2024-01-15T00:01:15;13.33;;;6.70;;
10717;SDS011;13513;42.700;23.124;2024-01-15T00:03:43;13.03;;;6.33;;
10717;SDS011;13513;42.700;23.124;2024-01-15T00:06:10;8.07;;;3.37;;
10717;SDS011;13513;42.700;23.124;2024-01-15T00:08:37;5.57;;;3.37;;
10717;SDS011;13513;42.700;23.124;2024-01-15T00:11:05;8.10;;;3.70;;
10717;SDS011;13513;42.700;23.124;2024-01-15T00:13:32;7.70;;;4.07;;
10717;SDS011;13513;42.700;23.124;2024-01-15T00:16:00;6.80;;;3.97;;
10717;SDS011;13513;42.700;23.124;2024-01-15T00:18:27;9.70;;;3.83;;
10717;SDS011;13513;42.700;23.124;2024-01-15T00:20:55;5.33;;;3.60;;
10717;SDS011;13513;42.700;23.124;2024-01-15T00:23:22;9.30;;;4.77;;
10717;SDS011;13513;42.700;23.124;2024-01-15T00:25:50;7.37;;;4.10;;
10717;SDS011;13513;42.700;23.124;2024-01-15T00:28:18;9.53;;;5.13;;
10717;SDS011;13513;42.700;23.124;2024-01-15T00:30:45;7.87;;;5.00;;
10717;SDS011;13513;42.700;23.124;2024-01-15T00:33:13;7.50;;;4.40;;
10717;SDS011;13513;42.700;23.124;2024-01-15T00:35:41;7.00;;;4.00;;
10717;SDS011;13513;42.700;23.124;2024-01-15T00:38:08;5.83;;;3.70;;
10717;SDS011;13513;42.700;23.124;2024-01-15T00:40:36;9.83;;;3.30;;
10717;SDS011;13513;42.700;23.124;2024-01-15T00:43:03;8.27;;;5.20;;
10717;SDS011;13513;42.700;23.124;2024-01-15T00:45:32;9.77;;;4.80;;
10717;SDS011;13513;42.700;23.124;2024-01-15T00:48:00;7.37;;;4.67;;
10717;SDS011;13513;42.700;23.124;2024-01-15T00:50:27;9.73;;;6.00;;
10717;SDS011;13513;42.700;23.124;2024-01-15T00:52:55;7.27;;;4.07;;
10717;SDS011;13513;42.700;23.124;2024-01-15T00:55:23;8.73;;;4.70;;
10717;SDS011;13513;42.700;23.124;2024-01-15T00:57:50;13.00;;;5.30;;
10717;SDS011;13513;42.700;23.124;2024-01-15T01:00:18;9.40;;;5.30;;
10717;SDS011;13513;42.700;23.124;2024-01-15T01:02:45;12.30;;;5.07;;
10717;SDS011;13513;42.700;23.124;2024-01-15T01:05:13;9.83;;;5.13;;
10717;SDS011;13513;42.700;23.124;2024-01-15T01:07:40;8.23;;;4.30;;
10717;SDS011;13513;42.700;23.124;2024-01-15T01:10:08;8.83;;;4.40;;
10717;SDS011;13513;42.700;23.124;2024-01-15T01:12:36;7.93;;;4.20;;
10717;SDS011;13513;42.700;23.124;2024-01-15T01:15:04;9.37;;;4.30;;
10717;SDS011;13513;42.700;23.124;2024-01-15T01:17:32;8.33;;;4.97;;
10717;SDS011;13513;42.700;23.124;2024-01-15T01:19:59;7.20;;;4.40;;
10717;SDS011;13513;42.700;23.124;2024-01-15T01:22:29;11.50;;;5.67;;
10717;SDS011;13513;42.700;23.124;2024-01-15T01:24:56;13.57;;;6.70;;
10717;SDS011;13513;42.700;23.124;2024-01-15T01:27:24;11.97;;;7.03;;
10717;SDS011;13513;42.700;23.124;2024-01-15T01:29:51;14.10;;;6.97;;
10717;SDS011;13513;42.700;23.124;2024-01-15T01:32:18;17.70;;;7.37;;
10717;SDS011;13513;42.700;23.124;2024-01-15T01:34:46;13.83;;;7.10;;
10717;SDS011;13513;42.700;23.124;2024-01-15T01:37:14;15.63;;;7.10;;
10717;SDS011;13513;42.700;23.124;2024-01-15T01:39:41;10.00;;;5.73;;
10717;SDS011;13513;42.700;23.124;2024-01-15T01:42:10;3.60;;;2.57;;
10717;SDS011;13513;42.700;23.124;2024-01-15T01:44:38;5.57;;;3.13;;
10717;SDS011;13513;42.700;23.124;2024-01-15T01:47:05;6.23;;;3.03;;
10717;SDS011;13513;42.700;23.124;2024-01-15T01:49:34;8.20;;;3.43;;
10717;SDS011;13513;42.700;23.124;2024-01-15T01:52:04;3.57;;;2.67;;
10717;SDS011;13513;42.700;23.124;2024-01-15T01:54:33;9.30;;;5.33;;
10717;SDS011;13513;42.700;23.124;2024-01-15T01:57:02;11.97;;;6.13;;
10717;SDS011;13513;42.700;23.124;2024-01-15T01:59:32;12.00;;;5.70;;
10717;SDS011;13513;42.700;23.124;2024-01-15T02:02:01;14.80;;;5.87;;
10717;SDS011;13513;42.700;23.124;2024-01-15T02:04:30;7.33;;;4.03;;
10717;SDS011;13513;42.700;23.124;2024-01-15T02:06:59;8.13;;;3.40;;
10717;SDS011;13513;42.700;23.124;2024-01-15T02:09:27;5.47;;;3.47;;
10717;SDS011;13513;42.700;23.124;2024-01-15T02:11:54;6.00;;;3.80;;
10717;SDS011;13513;42.700;23.124;2024-01-15T02:14:22;6.93;;;3.80;;
10717;SDS011;13513;42.700;23.124;2024-01-15T02:16:50;6.63;;;4.00;;
10717;SDS011;13513;42.700;23.124;2024-01-15T02:19:18;10.20;;;4.47;;
10717;SDS011;13513;42.700;23.124;2024-01-15T02:21:45;6.93;;;3.80;;
10717;SDS011;13513;42.700;23.124;2024-01-15T02:24:13;7.87;;;4.30;;
10717;SDS011;13513;42.700;23.124;2024-01-15T02:26:41;6.37;;;3.87;;
10717;SDS011;13513;42.700;23.124;2024-01-15T02:29:08;6.10;;;3.83;;
10717;SDS011;13513;42.700;23.124;2024-01-15T02:31:37;7.00;;;4.03;;
10717;SDS011;13513;42.700;23.124;2024-01-15T02:34:04;14.17;;;4.70;;
10717;SDS011;13513;42.700;23.124;2024-01-15T02:36:32;8.00;;;4.50;;
10717;SDS011;13513;42.700;23.124;2024-01-15T02:38:59;9.83;;;5.23;;
10717;SDS011;13513;42.700;23.124;2024-01-15T02:41:27;4.07;;;3.00;;
10717;SDS011;13513;42.700;23.124;2024-01-15T02:43:54;5.30;;;3.47;;
10717;SDS011;13513;42.700;23.124;2024-01-15T02:46:21;7.93;;;5.20;;
10717;SDS011;13513;42.700;23.124;2024-01-15T02:48:49;7.77;;;4.67;;
10717;SDS011;13513;42.700;23.124;2024-01-15T02:51:16;11.07;;;5.77;;
10717;SDS011;13513;42.700;23.124;2024-01-15T02:53:44;8.90;;;5.07;;
10717;SDS011;13513;42.700;23.124;2024-01-15T02:56:12;8.43;;;4.60;;
10717;SDS011;13513;42.700;23.124;2024-01-15T02:58:39;8.37;;;3.90;;
10717;SDS011;13513;42.700;23.124;2024-01-15T03:01:07;10.33;;;5.47;;
10717;SDS011;13513;42.700;23.124;2024-01-15T03:03:34;9.23;;;5.53;;
10717;SDS011;13513;42.700;23.124;2024-01-15T03:06:02;15.60;;;6.37;;
10717;SDS011;13513;42.700;23.124;2024-01-15T03:08:29;9.73;;;5.53;;
10717;SDS011;13513;42.700;23.124;2024-01-15T03:10:57;11.27;;;5.77;;
10717;SDS011;13513;42.700;23.124;2024-01-15T03:13:24;11.97;;;6.20;;
10717;SDS011;13513;42.700;23.124;2024-01-15T03:15:52;11.37;;;5.90;;
10717;SDS011;13513;42.700;23.124;2024-01-15T03:18:19;6.60;;;4.70;;
10717;SDS011;13513;42.700;23.124;2024-01-15T03:20:47;15.53;;;9.60;;
10717;SDS011;13513;42.700;23.124;2024-01-15T03:23:14;14.17;;;8.50;;
10717;SDS011;13513;42.700;23.124;2024-01-15T03:25:41;14.37;;;9.27;;
10717;SDS011;13513;42.700;23.124;2024-01-15T03:28:10;21.77;;;10.67;;
10717;SDS011;13513;42.700;23.124;2024-01-15T03:30:37;23.53;;;11.50;;
10717;SDS011;13513;42.700;23.124;2024-01-15T03:33:05;16.87;;;9.40;;
10717;SDS011;13513;42.700;23.124;2024-01-15T03:35:32;21.17;;;9.30;;
10717;SDS011;13513;42.700;23.124;2024-01-15T03:38:00;13.60;;;6.03;;
10717;SDS011;13513;42.700;23.124;2024-01-15T03:40:27;20.27;;;11.13;;
10717;SDS011;13513;42.700;23.124;2024-01-15T03:42:55;22.80;;;12.77;;
10717;SDS011;13513;42.700;23.124;2024-01-15T03:45:22;35.00;;;18.57;;
10717;SDS011;13513;42.700;23.124;2024-01-15T03:47:49;31.83;;;16.93;;
10717;SDS011;13513;42.700;23.124;2024-01-15T03:50:17;33.73;;;17.90;;
10717;SDS011;13513;42.700;23.124;2024-01-15T03:52:44;34.70;;;17.47;;
10717;SDS011;13513;42.700;23.124;2024-01-15T03:55:12;38.37;;;17.53;;
10717;SDS011;13513;42.700;23.124;2024-01-15T03:57:39;34.63;;;17.70;;
10717;SDS011;13513;42.700;23.124;2024-01-15T04:00:07;36.00;;;17.97;;
10717;SDS011;13513;42.700;23.124;2024-01-15T04:02:35;31.43;;;16.20;;
10717;SDS011;13513;42.700;23.124;2024-01-15T04:05:02;30.47;;;16.97;;
10717;SDS011;13513;42.700;23.124;2024-01-15T04:07:30;28.50;;;15.43;;
10717;SDS011;13513;42.700;23.124;2024-01-15T04:09:57;32.47;;;16.10;;
10717;SDS011;13513;42.700;23.124;2024-01-15T04:12:25;34.93;;;16.30;;
10717;SDS011;13513;42.700;23.124;2024-01-15T04:14:52;29.40;;;14.90;;
10717;SDS011;13513;42.700;23.124;2024-01-15T04:17:20;27.23;;;13.57;;
10717;SDS011;13513;42.700;23.124;2024-01-15T04:19:47;33.90;;;18.83;;
10717;SDS011;13513;42.700;23.124;2024-01-15T04:22:15;31.10;;;14.93;;
10717;SDS011;13513;42.700;23.124;2024-01-15T04:24:42;30.23;;;16.93;;
10717;SDS011;13513;42.700;23.124;2024-01-15T04:27:10;30.93;;;17.50;;
10717;SDS011;13513;42.700;23.124;2024-01-15T04:29:38;34.20;;;17.07;;
10717;SDS011;13513;42.700;23.124;2024-01-15T04:32:05;28.77;;;14.63;;
10717;SDS011;13513;42.700;23.124;2024-01-15T04:34:33;39.63;;;14.53;;
10717;SDS011;13513;42.700;23.124;2024-01-15T04:37:00;23.70;;;11.77;;
10717;SDS011;13513;42.700;23.124;2024-01-15T04:39:28;25.13;;;11.27;;
10717;SDS011;13513;42.700;23.124;2024-01-15T04:41:56;19.03;;;9.07;;
10717;SDS011;13513;42.700;23.124;2024-01-15T04:44:23;17.60;;;8.27;;
10717;SDS011;13513;42.700;23.124;2024-01-15T04:46:51;12.33;;;5.97;;
10717;SDS011;13513;42.700;23.124;2024-01-15T04:49:18;11.93;;;6.10;;
10717;SDS011;13513;42.700;23.124;2024-01-15T04:51:46;14.53;;;7.33;;
10717;SDS011;13513;42.700;23.124;2024-01-15T04:54:13;12.67;;;6.57;;
10717;SDS011;13513;42.700;23.124;2024-01-15T04:56:43;13.83;;;6.53;;
10717;SDS011;13513;42.700;23.124;2024-01-15T04:59:11;17.40;;;7.17;;
10717;SDS011;13513;42.700;23.124;2024-01-15T05:01:43;21.70;;;10.93;;
10717;SDS011;13513;42.700;23.124;2024-01-15T05:04:11;27.30;;;12.40;;
10717;SDS011;13513;42.700;23.124;2024-01-15T05:06:38;24.27;;;12.47;;
10717;SDS011;13513;42.700;23.124;2024-01-15T05:09:06;28.80;;;16.70;;
10717;SDS011;13513;42.700;23.124;2024-01-15T05:11:33;32.83;;;17.40;;
10717;SDS011;13513;42.700;23.124;2024-01-15T05:14:00;36.37;;;19.07;;
10717;SDS011;13513;42.700;23.124;2024-01-15T05:16:28;29.57;;;15.23;;
10717;SDS011;13513;42.700;23.124;2024-01-15T05:18:55;33.30;;;13.80;;
10717;SDS011;13513;42.700;23.124;2024-01-15T05:21:23;29.83;;;15.20;;
10717;SDS011;13513;42.700;23.124;2024-01-15T05:23:50;33.97;;;15.60;;
10717;SDS011;13513;42.700;23.124;2024-01-15T05:26:18;27.77;;;12.97;;
10717;SDS011;13513;42.700;23.124;2024-01-15T05:28:45;32.83;;;15.90;;
10717;SDS011;13513;42.700;23.124;2024-01-15T05:31:12;32.60;;;15.70;;
10717;SDS011;13513;42.700;23.124;2024-01-15T05:33:40;29.20;;;14.03;;
10717;SDS011;13513;42.700;23.124;2024-01-15T05:36:07;33.13;;;15.63;;
10717;SDS011;13513;42.700;23.124;2024-01-15T05:38:35;33.50;;;15.93;;
10717;SDS011;13513;42.700;23.124;2024-01-15T05:41:02;31.47;;;14.83;;
10717;SDS011;13513;42.700;23.124;2024-01-15T05:43:31;29.87;;;15.67;;
10717;SDS011;13513;42.700;23.124;2024-01-15T05:45:59;28.67;;;15.80;;
10717;SDS011;13513;42.700;23.124;2024-01-15T05:48:26;31.67;;;15.43;;
10717;SDS011;13513;42.700;23.124;2024-01-15T05:50:53;26.87;;;14.63;;
10717;SDS011;13513;42.700;23.124;2024-01-15T05:53:21;29.37;;;16.20;;
10717;SDS011;13513;42.700;23.124;2024-01-15T05:55:48;29.30;;;17.10;;
10717;SDS011;13513;42.700;23.124;2024-01-15T05:58:16;27.60;;;15.40;;
10717;SDS011;13513;42.700;23.124;2024-01-15T06:00:43;29.67;;;16.00;;
10717;SDS011;13513;42.700;23.124;2024-01-15T06:03:11;28.60;;;15.53;;
10717;SDS011;13513;42.700;23.124;2024-01-15T06:05:39;37.07;;;16.87;;
10717;SDS011;13513;42.700;23.124;2024-01-15T06:08:06;25.47;;;11.43;;
10717;SDS011;13513;42.700;23.124;2024-01-15T06:10:34;37.67;;;16.83;;
10717;SDS011;13513;42.700;23.124;2024-01-15T06:13:01;32.80;;;16.97;;
10717;SDS011;13513;42.700;23.124;2024-01-15T06:15:29;31.73;;;16.60;;
10717;SDS011;13513;42.700;23.124;2024-01-15T06:17:56;37.23;;;18.20;;
10717;SDS011;13513;42.700;23.124;2024-01-15T06:20:23;31.90;;;17.13;;
10717;SDS011;13513;42.700;23.124;2024-01-15T06:22:51;28.40;;;15.83;;
10717;SDS011;13513;42.700;23.124;2024-01-15T06:25:18;31.77;;;15.73;;
10717;SDS011;13513;42.700;23.124;2024-01-15T06:27:46;27.83;;;16.13;;
10717;SDS011;13513;42.700;23.124;2024-01-15T06:30:13;40.90;;;20.53;;
10717;SDS011;13513;42.700;23.124;2024-01-15T06:32:41;52.83;;;22.03;;
10717;SDS011;13513;42.700;23.124;2024-01-15T06:35:08;37.50;;;19.27;;
10717;SDS011;13513;42.700;23.124;2024-01-15T06:37:37;42.63;;;23.93;;
10717;SDS011;13513;42.700;23.124;2024-01-15T06:40:04;27.00;;;14.37;;
10717;SDS011;13513;42.700;23.124;2024-01-15T06:42:33;34.83;;;19.70;;
10717;SDS011;13513;42.700;23.124;2024-01-15T06:45:01;37.90;;;20.03;;
10717;SDS011;13513;42.700;23.124;2024-01-15T06:47:29;49.00;;;23.60;;
10717;SDS011;13513;42.700;23.124;2024-01-15T06:49:58;49.03;;;24.80;;
10717;SDS011;13513;42.700;23.124;2024-01-15T06:52:25;37.57;;;20.80;;
10717;SDS011;13513;42.700;23.124;2024-01-15T06:54:53;50.90;;;25.87;;
10717;SDS011;13513;42.700;23.124;2024-01-15T06:57:20;51.83;;;28.30;;
10717;SDS011;13513;42.700;23.124;2024-01-15T06:59:47;41.53;;;21.60;;
10717;SDS011;13513;42.700;23.124;2024-01-15T07:02:15;40.23;;;20.90;;
10717;SDS011;13513;42.700;23.124;2024-01-15T07:04:42;33.33;;;17.90;;
10717;SDS011;13513;42.700;23.124;2024-01-15T07:07:10;33.37;;;18.07;;
10717;SDS011;13513;42.700;23.124;2024-01-15T07:09:37;26.00;;;13.93;;
10717;SDS011;13513;42.700;23.124;2024-01-15T07:12:05;49.90;;;23.80;;
10717;SDS011;13513;42.700;23.124;2024-01-15T07:14:32;32.30;;;17.47;;
10717;SDS011;13513;42.700;23.124;2024-01-15T07:17:01;32.43;;;17.60;;
10717;SDS011;13513;42.700;23.124;2024-01-15T07:19:29;33.20;;;17.80;;
10717;SDS011;13513;42.700;23.124;2024-01-15T07:21:56;36.03;;;18.30;;
10717;SDS011;13513;42.700;23.124;2024-01-15T07:24:23;31.97;;;18.73;;
10717;SDS011;13513;42.700;23.124;2024-01-15T07:26:51;28.83;;;15.90;;
10717;SDS011;13513;42.700;23.124;2024-01-15T07:29:18;29.07;;;16.20;;
10717;SDS011;13513;42.700;23.124;2024-01-15T07:31:49;29.53;;;16.37;;
10717;SDS011;13513;42.700;23.124;2024-01-15T07:34:17;28.47;;;14.13;;
10717;SDS011;13513;42.700;23.124;2024-01-15T07:36:45;26.53;;;13.93;;
10717;SDS011;13513;42.700;23.124;2024-01-15T07:39:12;24.03;;;12.80;;
10717;SDS011;13513;42.700;23.124;2024-01-15T07:41:40;35.30;;;19.40;;
10717;SDS011;13513;42.700;23.124;2024-01-15T07:44:07;44.30;;;25.30;;
10717;SDS011;13513;42.700;23.124;2024-01-15T07:46:35;35.00;;;18.03;;
10717;SDS011;13513;42.700;23.124;2024-01-15T07:49:02;37.00;;;19.37;;
10717;SDS011;13513;42.700;23.124;2024-01-15T07:51:30;38.00;;;18.37;;
10717;SDS011;13513;42.700;23.124;2024-01-15T07:53:58;38.27;;;22.67;;
10717;SDS011;13513;42.700;23.124;2024-01-15T07:56:25;43.93;;;24.37;;
10717;SDS011;13513;42.700;23.124;2024-01-15T07:58:53;40.03;;;23.47;;
10717;SDS011;13513;42.700;23.124;2024-01-15T08:01:20;36.23;;;19.77;;
10717;SDS011;13513;42.700;23.124;2024-01-15T08:03:48;39.73;;;19.50;;
10717;SDS011;13513;42.700;23.124;2024-01-15T08:06:15;26.00;;;13.97;;
10717;SDS011;13513;42.700;23.124;2024-01-15T08:08:43;32.00;;;16.67;;
10717;SDS011;13513;42.700;23.124;2024-01-15T08:11:10;24.10;;;13.43;;
10717;SDS011;13513;42.700;23.124;2024-01-15T08:13:38;31.67;;;15.33;;
10717;SDS011;13513;42.700;23.124;2024-01-15T08:16:05;23.70;;;11.50;;
10717;SDS011;13513;42.700;23.124;2024-01-15T08:18:33;18.17;;;9.43;;
10717;SDS011;13513;42.700;23.124;2024-01-15T08:21:00;21.90;;;12.60;;
10717;SDS011;13513;42.700;23.124;2024-01-15T08:23:28;32.60;;;17.67;;
10717;SDS011;13513;42.700;23.124;2024-01-15T08:25:56;34.43;;;17.13;;
10717;SDS011;13513;42.700;23.124;2024-01-15T08:28:24;30.00;;;17.20;;
10717;SDS011;13513;42.700;23.124;2024-01-15T08:30:51;39.13;;;21.30;;
10717;SDS011;13513;42.700;23.124;2024-01-15T08:33:19;35.50;;;20.83;;
10717;SDS011;13513;42.700;23.124;2024-01-15T08:35:46;35.83;;;18.23;;
10717;SDS011;13513;42.700;23.124;2024-01-15T08:38:14;30.93;;;16.77;;
10717;SDS011;13513;42.700;23.124;2024-01-15T08:40:41;34.40;;;17.63;;
10717;SDS011;13513;42.700;23.124;2024-01-15T08:43:09;28.80;;;17.43;;
10717;SDS011;13513;42.700;23.124;2024-01-15T08:45:36;30.93;;;17.93;;
10717;SDS011;13513;42.700;23.124;2024-01-15T08:48:04;32.90;;;16.37;;
10717;SDS011;13513;42.700;23.124;2024-01-15T08:50:32;26.40;;;15.60;;
10717;SDS011;13513;42.700;23.124;2024-01-15T08:53:00;23.13;;;13.43;;
10717;SDS011;13513;42.700;23.124;2024-01-15T08:55:27;28.17;;;16.03;;
10717;SDS011;13513;42.700;23.124;2024-01-15T08:57:54;34.30;;;16.13;;
10717;SDS011;13513;42.700;23.124;2024-01-15T09:00:22;33.43;;;15.93;;
10717;SDS011;13513;42.700;23.124;2024-01-15T09:02:49;30.10;;;15.07;;
10717;SDS011;13513;42.700;23.124;2024-01-15T09:05:17;26.40;;;14.70;;
10717;SDS011;13513;42.700;23.124;2024-01-15T09:07:44;33.97;;;15.33;;
10717;SDS011;13513;42.700;23.124;2024-01-15T09:10:11;31.23;;;15.10;;
10717;SDS011;13513;42.700;23.124;2024-01-15T09:12:39;26.67;;;14.97;;
10717;SDS011;13513;42.700;23.124;2024-01-15T09:15:06;21.80;;;13.10;;
10717;SDS011;13513;42.700;23.124;2024-01-15T09:17:34;22.37;;;13.23;;
10717;SDS011;13513;42.700;23.124;2024-01-15T09:20:01;26.83;;;15.07;;
10717;SDS011;13513;42.700;23.124;2024-01-15T09:22:31;29.20;;;16.97;;
10717;SDS011;13513;42.700;23.124;2024-01-15T09:24:59;32.63;;;18.83;;
10717;SDS011;13513;42.700;23.124;2024-01-15T09:27:26;30.73;;;17.83;;
10717;SDS011;13513;42.700;23.124;2024-01-15T09:29:54;27.07;;;15.60;;
10717;SDS011;13513;42.700;23.124;2024-01-15T09:32:21;24.43;;;14.10;;
10717;SDS011;13513;42.700;23.124;2024-01-15T09:34:49;9.57;;;6.10;;
10717;SDS011;13513;42.700;23.124;2024-01-15T09:37:16;6.50;;;2.90;;
10717;SDS011;13513;42.700;23.124;2024-01-15T09:39:44;6.17;;;3.40;;
10717;SDS011;13513;42.700;23.124;2024-01-15T09:42:12;3.80;;;2.20;;
10717;SDS011;13513;42.700;23.124;2024-01-15T09:44:39;6.70;;;2.57;;
10717;SDS011;13513;42.700;23.124;2024-01-15T09:47:07;5.60;;;2.83;;
10717;SDS011;13513;42.700;23.124;2024-01-15T09:49:35;2.90;;;2.00;;
10717;SDS011;13513;42.700;23.124;2024-01-15T09:52:04;4.73;;;2.87;;
10717;SDS011;13513;42.700;23.124;2024-01-15T09:54:33;4.17;;;2.40;;
10717;SDS011;13513;42.700;23.124;2024-01-15T09:57:00;4.97;;;2.67;;
10717;SDS011;13513;42.700;23.124;2024-01-15T09:59:29;2.10;;;1.87;;
10717;SDS011;13513;42.700;23.124;2024-01-15T10:01:59;6.60;;;2.17;;
10717;SDS011;13513;42.700;23.124;2024-01-15T10:04:28;8.00;;;2.70;;
10717;SDS011;13513;42.700;23.124;2024-01-15T10:06:55;4.47;;;2.33;;
10717;SDS011;13513;42.700;23.124;2024-01-15T10:09:24;5.73;;;2.57;;
10717;SDS011;13513;42.700;23.124;2024-01-15T10:11:51;4.33;;;2.47;;
10717;SDS011;13513;42.700;23.124;2024-01-15T10:14:20;3.83;;;2.37;;
10717;SDS011;13513;42.700;23.124;2024-01-15T10:16:47;5.50;;;2.60;;
10717;SDS011;13513;42.700;23.124;2024-01-15T10:19:15;5.83;;;3.27;;
10717;SDS011;13513;42.700;23.124;2024-01-15T10:21:42;4.63;;;2.60;;
10717;SDS011;13513;42.700;23.124;2024-01-15T10:24:10;6.50;;;2.57;;
10717;SDS011;13513;42.700;23.124;2024-01-15T10:26:38;4.23;;;2.37;;
10717;SDS011;13513;42.700;23.124;2024-01-15T10:29:06;3.43;;;2.60;;
10717;SDS011;13513;42.700;23.124;2024-01-15T10:31:33;3.93;;;2.20;;
10717;SDS011;13513;42.700;23.124;2024-01-15T10:34:10;5.80;;;3.33;;
10717;SDS011;13513;42.700;23.124;2024-01-15T10:36:40;3.17;;;2.30;;
10717;SDS011;13513;42.700;23.124;2024-01-15T10:39:09;5.47;;;2.70;;
10717;SDS011;13513;42.700;23.124;2024-01-15T10:41:38;6.17;;;3.03;;
10717;SDS011;13513;42.700;23.124;2024-01-15T10:44:06;8.27;;;4.23;;
10717;SDS011;13513;42.700;23.124;2024-01-15T10:46:33;8.93;;;3.27;;
10717;SDS011;13513;42.700;23.124;2024-01-15T10:49:02;9.43;;;3.70;;
10717;SDS011;13513;42.700;23.124;2024-01-15T10:51:30;8.27;;;3.20;;
10717;SDS011;13513;42.700;23.124;2024-01-15T10:53:58;5.30;;;2.80;;
10717;SDS011;13513;42.700;23.124;2024-01-15T10:56:27;8.07;;;4.53;;
10717;SDS011;13513;42.700;23.124;2024-01-15T10:58:56;6.97;;;3.30;;
10717;SDS011;13513;42.700;23.124;2024-01-15T11:01:24;4.70;;;2.70;;
10717;SDS011;13513;42.700;23.124;2024-01-15T11:03:53;4.47;;;2.80;;
10717;SDS011;13513;42.700;23.124;2024-01-15T11:06:23;4.50;;;1.97;;
10717;SDS011;13513;42.700;23.124;2024-01-15T11:08:52;8.37;;;2.97;;
10717;SDS011;13513;42.700;23.124;2024-01-15T11:11:23;5.70;;;2.67;;
10717;SDS011;13513;42.700;23.124;2024-01-15T11:13:52;5.77;;;2.93;;
10717;SDS011;13513;42.700;23.124;2024-01-15T11:16:19;5.80;;;3.53;;
10717;SDS011;13513;42.700;23.124;2024-01-15T11:21:29;3.13;;;1.93;;
10717;SDS011;13513;42.700;23.124;2024-01-15T11:24:02;2.40;;;1.87;;
10717;SDS011;13513;42.700;23.124;2024-01-15T11:26:28;5.57;;;3.37;;
10717;SDS011;13513;42.700;23.124;2024-01-15T11:28:57;3.10;;;1.47;;
10717;SDS011;13513;42.700;23.124;2024-01-15T11:34:09;4.97;;;2.97;;
10717;SDS011;13513;42.700;23.124;2024-01-15T11:42:04;4.57;;;2.03;;
10717;SDS011;13513;42.700;23.124;2024-01-15T11:44:31;5.60;;;2.50;;
10717;SDS011;13513;42.700;23.124;2024-01-15T11:46:59;3.53;;;2.10;;
10717;SDS011;13513;42.700;23.124;2024-01-15T11:52:36;6.47;;;3.60;;
10717;SDS011;13513;42.700;23.124;2024-01-15T11:55:01;9.07;;;3.50;;
10717;SDS011;13513;42.700;23.124;2024-01-15T11:57:40;17.70;;;8.37;;
10717;SDS011;13513;42.700;23.124;2024-01-15T12:00:10;6.90;;;3.00;;
10717;SDS011;13513;42.700;23.124;2024-01-15T12:02:42;5.23;;;2.33;;
10717;SDS011;13513;42.700;23.124;2024-01-15T12:05:12;5.33;;;2.40;;
10717;SDS011;13513;42.700;23.124;2024-01-15T12:07:41;6.27;;;3.67;;
10717;SDS011;13513;42.700;23.124;2024-01-15T12:10:10;10.97;;;5.80;;
10717;SDS011;13513;42.700;23.124;2024-01-15T12:12:57;6.37;;;3.27;;
10717;SDS011;13513;42.700;23.124;2024-01-15T12:15:27;10.47;;;3.60;;
10717;SDS011;13513;42.700;23.124;2024-01-15T12:17:56;8.67;;;4.17;;
10717;SDS011;13513;42.700;23.124;2024-01-15T12:20:25;8.60;;;4.40;;
10717;SDS011;13513;42.700;23.124;2024-01-15T12:22:53;9.50;;;5.40;;
10717;SDS011;13513;42.700;23.124;2024-01-15T12:25:21;8.73;;;2.80;;
10717;SDS011;13513;42.700;23.124;2024-01-15T12:27:51;4.00;;;2.67;;
10717;SDS011;13513;42.700;23.124;2024-01-15T12:30:18;4.97;;;2.60;;
10717;SDS011;13513;42.700;23.124;2024-01-15T12:32:46;5.47;;;2.03;;
10717;SDS011;13513;42.700;23.124;2024-01-15T12:35:14;5.30;;;2.17;;
10717;SDS011;13513;42.700;23.124;2024-01-15T12:37:42;6.23;;;2.60;;
10717;SDS011;13513;42.700;23.124;2024-01-15T12:40:11;4.43;;;2.53;;
10717;SDS011;13513;42.700;23.124;2024-01-15T12:42:40;2.60;;;1.80;;
10717;SDS011;13513;42.700;23.124;2024-01-15T12:45:09;4.93;;;2.37;;
10717;SDS011;13513;42.700;23.124;2024-01-15T12:47:39;3.83;;;2.17;;
10717;SDS011;13513;42.700;23.124;2024-01-15T12:50:10;4.63;;;2.20;;
10717;SDS011;13513;42.700;23.124;2024-01-15T12:52:41;3.00;;;2.20;;
10717;SDS011;13513;42.700;23.124;2024-01-15T12:55:09;2.00;;;1.63;;
10717;SDS011;13513;42.700;23.124;2024-01-15T12:57:37;5.03;;;1.90;;
10717;SDS011;13513;42.700;23.124;2024-01-15T13:00:05;3.63;;;1.57;;
10717;SDS011;13513;42.700;23.124;2024-01-15T13:02:34;6.13;;;1.83;;
10717;SDS011;13513;42.700;23.124;2024-01-15T13:05:03;6.43;;;1.77;;
10717;SDS011;13513;42.700;23.124;2024-01-15T13:07:31;4.33;;;1.73;;
10717;SDS011;13513;42.700;23.124;2024-01-15T13:09:58;4.43;;;1.90;;
10717;SDS011;13513;42.700;23.124;2024-01-15T13:12:26;4.33;;;1.83;;
10717;SDS011;13513;42.700;23.124;2024-01-15T13:14:53;2.50;;;1.77;;
10717;SDS011;13513;42.700;23.124;2024-01-15T13:17:21;2.90;;;1.57;;
10717;SDS011;13513;42.700;23.124;2024-01-15T13:19:49;2.10;;;1.47;;
10717;SDS011;13513;42.700;23.124;2024-01-15T13:22:16;5.20;;;2.23;;
10717;SDS011;13513;42.700;23.124;2024-01-15T13:24:44;3.33;;;1.83;;
10717;SDS011;13513;42.700;23.124;2024-01-15T13:27:11;1.70;;;1.30;;
10717;SDS011;13513;42.700;23.124;2024-01-15T13:29:39;1.90;;;1.10;;
10717;SDS011;13513;42.700;23.124;2024-01-15T13:32:06;2.83;;;1.10;;
10717;SDS011;13513;42.700;23.124;2024-01-15T13:34:35;3.50;;;2.00;;
10717;SDS011;13513;42.700;23.124;2024-01-15T13:37:03;6.77;;;3.13;;
10717;SDS011;13513;42.700;23.124;2024-01-15T13:39:30;2.43;;;1.53;;
10717;SDS011;13513;42.700;23.124;2024-01-15T13:41:58;4.53;;;2.00;;
10717;SDS011;13513;42.700;23.124;2024-01-15T13:44:26;6.80;;;1.60;;
10717;SDS011;13513;42.700;23.124;2024-01-15T13:46:54;2.37;;;1.50;;
10717;SDS011;13513;42.700;23.124;2024-01-15T13:49:22;1.87;;;1.20;;
10717;SDS011;13513;42.700;23.124;2024-01-15T13:51:50;3.83;;;1.40;;
10717;SDS011;13513;42.700;23.124;2024-01-15T13:54:17;3.73;;;1.40;;
10717;SDS011;13513;42.700;23.124;2024-01-15T13:56:46;2.13;;;1.57;;
10717;SDS011;13513;42.700;23.124;2024-01-15T13:59:13;1.80;;;1.50;;
10717;SDS011;13513;42.700;23.124;2024-01-15T14:01:42;7.43;;;2.10;;
10717;SDS011;13513;42.700;23.124;2024-01-15T14:04:09;4.30;;;2.00;;
10717;SDS011;13513;42.700;23.124;2024-01-15T14:06:37;3.60;;;1.60;;
10717;SDS011;13513;42.700;23.124;2024-01-15T14:09:04;2.80;;;2.07;;
10717;SDS011;13513;42.700;23.124;2024-01-15T14:11:34;2.70;;;1.57;;
10717;SDS011;13513;42.700;23.124;2024-01-15T14:14:03;4.07;;;2.10;;
10717;SDS011;13513;42.700;23.124;2024-01-15T14:16:30;3.33;;;1.73;;
10717;SDS011;13513;42.700;23.124;2024-01-15T14:18:58;6.87;;;2.20;;
10717;SDS011;13513;42.700;23.124;2024-01-15T14:21:27;3.63;;;1.90;;
10717;SDS011;13513;42.700;23.124;2024-01-15T14:23:54;1.33;;;1.03;;
10717;SDS011;13513;42.700;23.124;2024-01-15T14:26:22;3.97;;;1.80;;
10717;SDS011;13513;42.700;23.124;2024-01-15T14:28:49;5.20;;;2.30;;
10717;SDS011;13513;42.700;23.124;2024-01-15T14:31:17;3.63;;;1.97;;
10717;SDS011;13513;42.700;23.124;2024-01-15T14:33:46;2.47;;;1.33;;
10717;SDS011;13513;42.700;23.124;2024-01-15T14:36:13;6.10;;;1.87;;
10717;SDS011;13513;42.700;23.124;2024-01-15T14:38:41;4.70;;;2.10;;
10717;SDS011;13513;42.700;23.124;2024-01-15T14:41:08;4.73;;;2.40;;